Flight Track Log - Related Links

Times and Time Zones

All times are in EDT time to prevent confusion due to time zone crossing. See the AUB2161 flight status page for this flight to view local times or setup timezone preferences in your user account.

Time Position Orientation Groundspeed Altitude Reporting Facility
EDT Latitude Longitude Course Direction KTS MPH feet Rate Location/Type
Tue 02:05:00 PM 49.1575 11.2927 158° South  Level Estimated
Tue 02:06:00 PM 49.1007 11.3282 158° South  Level Estimated
Tue 02:07:00 PM 49.0438 11.3636 158° South  Level Estimated
Tue 02:08:00 PM 48.9868 11.3989 158° South  Level Estimated
Tue 02:09:00 PM 48.9299 11.4342 158° South  Level Estimated
Tue 02:10:00 PM 48.8730 11.4693 158° South  Level Estimated
Tue 02:11:00 PM 48.8161 11.5044 158° South  Level Estimated
Tue 02:12:00 PM 48.7591 11.5394 158° South  Level Estimated
Tue 02:13:00 PM 48.7021 11.5744 158° South  Level Estimated
Tue 02:14:00 PM 48.6452 11.6092 158° South  Level Estimated
Tue 02:15:00 PM 48.5882 11.6440 158° South  Level Estimated
Tue 02:16:00 PM 48.5312 11.6787 158° South  Level Estimated
Tue 02:17:00 PM 48.4742 11.7133 158° South  Level Estimated
Tue 02:18:00 PM 48.4172 11.7478 158° South  Level Estimated
Tue 02:19:00 PM 48.3601 11.7823 158° South  Level Estimated
Tue 02:20:00 PM 48.3538 11.7861 158° South  Level Estimated
Tue 02:21:00 PM 48.3538 11.7861 318° Northwest  Level Estimated
Tue 02:22:00 PM 48.3538 11.7861 318° Northwest  Level Estimated
Tue 02:23:00 PM 48.3538 11.7861 318° Northwest  Level Estimated
Tue 02:24:00 PM 48.3538 11.7861 318° Northwest  Level Estimated
Tue 02:25:00 PM 48.3538 11.7861 318° Northwest  Level Estimated
Tue 02:26:00 PM 48.3538 11.7861 318° Northwest  Level Estimated
Tue 02:27:00 PM 48.3538 11.7861 318° Northwest  Level Estimated
Tue 02:28:00 PM 48.3538 11.7861 318° Northwest  Level Estimated
Tue 02:29:00 PM 48.3538 11.7861 318° Northwest  Level Estimated
Tue 02:30:00 PM 48.3538 11.7861 318° Northwest  Level Estimated
Tue 02:31:00 PM 48.3538 11.7861 318° Northwest  Level Estimated
Tue 02:32:00 PM 48.3538 11.7861 318° Northwest  Level Estimated
Tue 02:33:00 PM 48.3538 11.7861 318° Northwest  Level Estimated
Tue 02:34:00 PM 48.3538 11.7861 318° Northwest  Level Estimated
Tue 02:35:00 PM 48.3538 11.7861 318° Northwest  Level Estimated

Login

Don't have an account? Register now (free) for customized features, flight alerts, and more!